Time;durP1;ratioP1;P1;durP2;ratioP2;P2;SDS_P1;SDS_P2;PMS_P1;PMS_P2;Temp;Humidity;BMP_temperature;BMP_pressure;BME280_temperature;BME280_humidity;BME280_pressure;Samples;Min_cycle;Max_cycle;Signal;HPM_P1;HPM_P2
2023/12/19 00:01:10;;;;;;;0.30;0.30;;;;;;;13.77;70.49;102448.66;5074379;28;20067;-66
2023/12/19 00:03:36;;;;;;;0.30;0.30;;;;;;;13.87;71.15;102443.69;5072202;28;20119;-64
2023/12/19 00:06:02;;;;;;;0.20;0.20;;;;;;;14.17;69.67;102435.94;5073335;28;20044;-65
2023/12/19 00:08:28;;;;;;;0.25;0.25;;;;;;;13.77;70.93;102426.19;5069190;28;20125;-66
2023/12/19 00:10:53;;;;;;;0.20;0.20;;;;;;;14.81;66.51;102423.34;5070977;28;20032;-65
2023/12/19 00:13:19;;;;;;;0.20;0.20;;;;;;;14.17;69.64;102427.81;5075612;28;20024;-65
2023/12/19 00:15:44;;;;;;;0.22;0.22;;;;;;;14.18;69.57;102415.16;5071707;28;20024;-65
2023/12/19 00:18:09;;;;;;;0.20;0.20;;;;;;;14.13;69.79;102418.50;5069507;28;20032;-65
2023/12/19 00:20:35;;;;;;;0.20;0.20;;;;;;;13.86;71.11;102411.44;5070620;28;20040;-65
2023/12/19 00:23:00;;;;;;;0.20;0.20;;;;;;;13.73;70.76;102404.19;5070953;28;20120;-65
2023/12/19 00:25:26;;;;;;;0.20;0.20;;;;;;;14.12;68.68;102411.41;5071348;28;20500;-64
2023/12/19 00:27:52;;;;;;;0.20;0.20;;;;;;;14.16;69.92;102414.53;5071204;28;20032;-65
2023/12/19 00:30:17;;;;;;;0.20;0.20;;;;;;;13.64;70.83;102404.59;5070502;28;20044;-67
2023/12/19 00:32:43;;;;;;;0.20;0.20;;;;;;;13.77;72.04;102393.78;5071159;28;20068;-66
2023/12/19 00:35:08;;;;;;;0.22;0.22;;;;;;;14.50;69.23;102392.66;5064598;28;20106;-64
2023/12/19 00:37:34;;;;;;;0.20;0.20;;;;;;;14.39;69.94;102377.91;5069939;28;20051;-65
2023/12/19 00:39:59;;;;;;;0.20;0.20;;;;;;;14.15;69.72;102375.88;5071169;28;20037;-66
2023/12/19 00:42:24;;;;;;;0.20;0.20;;;;;;;14.95;65.65;102378.94;5070060;28;20043;-65
2023/12/19 00:44:50;;;;;;;0.20;0.20;;;;;;;14.21;68.03;102380.41;5070398;28;20060;-65
2023/12/19 00:47:15;;;;;;;0.20;0.20;;;;;;;13.76;70.37;102397.50;5070516;28;20128;-64
2023/12/19 00:49:43;;;;;;;0.20;0.20;;;;;;;14.33;68.22;102384.16;5070974;28;20043;-66
2023/12/19 00:52:08;;;;;;;0.30;0.30;;;;;;;14.82;66.25;102376.28;5064503;28;20036;-65
2023/12/19 00:54:33;;;;;;;0.20;0.20;;;;;;;13.95;68.92;102375.06;5071280;28;20030;-65
2023/12/19 00:56:59;;;;;;;0.20;0.20;;;;;;;14.48;68.49;102382.03;5070037;28;20135;-66
2023/12/19 00:59:24;;;;;;;0.20;0.20;;;;;;;15.41;65.64;102375.09;5070387;28;20135;-65
2023/12/19 01:01:49;;;;;;;0.30;0.30;;;;;;;14.78;66.08;102369.63;5074430;28;20072;-65
2023/12/19 01:04:17;;;;;;;0.20;0.20;;;;;;;14.71;67.26;102362.59;5070065;28;20182;-66
2023/12/19 01:06:42;;;;;;;0.30;0.30;;;;;;;14.78;67.52;102347.16;5051646;28;20044;-66
2023/12/19 01:09:09;;;;;;;0.30;0.30;;;;;;;14.62;68.25;102339.53;5068132;28;20056;-65
2023/12/19 01:11:35;;;;;;;0.20;0.20;;;;;;;13.48;71.12;102337.47;5070191;28;20097;-65
2023/12/19 01:14:00;;;;;;;0.20;0.20;;;;;;;13.73;71.44;102342.03;5069079;28;20044;-65
2023/12/19 01:16:26;;;;;;;0.30;0.30;;;;;;;15.18;66.27;102336.91;5052168;28;20254;-65
2023/12/19 01:18:51;;;;;;;0.30;0.30;;;;;;;14.67;66.20;102354.06;5070199;28;20099;-64
2023/12/19 01:21:16;;;;;;;0.30;0.30;;;;;;;14.52;66.70;102345.41;5051458;28;20040;-66
2023/12/19 01:23:42;;;;;;;0.20;0.20;;;;;;;14.17;68.20;102354.03;5070052;28;20087;-65
2023/12/19 01:26:08;;;;;;;0.10;0.10;;;;;;;14.07;69.92;102359.88;5069223;28;20072;-66
2023/12/19 01:28:34;;;;;;;0.20;0.20;;;;;;;13.86;68.67;102343.88;5070148;28;20041;-65
2023/12/19 01:30:59;;;;;;;0.20;0.20;;;;;;;14.49;67.90;102353.09;5070582;28;20063;-64
2023/12/19 01:33:24;;;;;;;0.20;0.20;;;;;;;13.76;71.02;102349.72;5069323;28;20044;-66
2023/12/19 01:35:50;;;;;;;0.20;0.20;;;;;;;14.50;67.74;102343.97;5069560;28;20048;-65
2023/12/19 01:38:15;;;;;;;0.20;0.20;;;;;;;14.35;68.80;102340.69;5069883;28;20044;-64
2023/12/19 01:40:41;;;;;;;0.30;0.30;;;;;;;13.44;70.94;102339.75;5069545;28;20056;-65
2023/12/19 01:43:19;;;;;;;0.20;0.20;;;;;;;13.76;70.13;102332.66;5069548;28;20040;-65
2023/12/19 01:45:45;;;;;;;0.20;0.20;;;;;;;14.31;68.83;102331.34;5070647;28;20103;-65
2023/12/19 01:48:13;;;;;;;0.35;0.35;;;;;;;14.20;69.53;102327.38;5069704;28;20746;-66
2023/12/19 01:50:38;;;;;;;0.20;0.20;;;;;;;14.61;67.16;102336.00;5051232;28;20072;-65
2023/12/19 01:53:04;;;;;;;0.35;0.35;;;;;;;14.52;68.10;102328.34;5069598;28;20432;-67
2023/12/19 01:55:30;;;;;;;0.30;0.30;;;;;;;14.09;70.57;102320.75;5072283;28;20048;-65
2023/12/19 01:57:56;;;;;;;0.20;0.20;;;;;;;14.83;67.67;102310.28;5050962;28;20045;-66
2023/12/19 02:00:22;;;;;;;0.20;0.20;;;;;;;14.74;65.82;102314.28;5068360;28;20036;-65
2023/12/19 02:02:50;;;;;;;0.20;0.20;;;;;;;14.87;66.12;102307.97;5040356;28;20044;-65
2023/12/19 02:05:16;;;;;;;0.30;0.30;;;;;;;14.21;68.54;102309.31;5070129;28;20068;-65
2023/12/19 02:07:43;;;;;;;0.30;0.30;;;;;;;14.13;69.25;102309.53;5068794;28;20393;-65
2023/12/19 02:10:08;;;;;;;0.38;0.38;;;;;;;13.92;70.16;102306.03;5069043;28;20174;-64
2023/12/19 02:12:34;;;;;;;0.30;0.30;;;;;;;14.15;70.23;102305.56;5072222;28;20115;-65
2023/12/19 02:14:59;;;;;;;0.30;0.30;;;;;;;13.73;70.29;102297.97;5069166;28;20040;-64
2023/12/19 02:17:25;;;;;;;0.20;0.20;;;;;;;14.72;67.32;102294.72;5069004;28;20037;-65
2023/12/19 02:19:53;;;;;;;0.20;0.20;;;;;;;14.49;67.97;102290.88;5068865;28;20536;-66
2023/12/19 02:22:19;;;;;;;0.30;0.30;;;;;;;13.99;69.32;102295.22;5069022;28;20407;-67
2023/12/19 02:24:45;;;;;;;0.20;0.20;;;;;;;14.88;65.62;102296.06;5069551;28;20795;-65
2023/12/19 02:27:12;;;;;;;0.20;0.20;;;;;;;14.47;67.50;102283.00;5049973;28;20032;-65
2023/12/19 02:29:37;;;;;;;0.10;0.10;;;;;;;14.69;68.03;102278.94;5068748;28;20040;-65
2023/12/19 02:32:03;;;;;;;0.30;0.30;;;;;;;15.03;65.41;102284.94;5069083;28;20412;-66
2023/12/19 02:34:29;;;;;;;0.20;0.20;;;;;;;14.98;66.22;102278.31;5069086;28;20511;-65
2023/12/19 02:36:55;;;;;;;0.20;0.20;;;;;;;14.07;72.78;102276.88;5050568;28;20076;-65
2023/12/19 02:39:20;;;;;;;0.20;0.20;;;;;;;14.69;67.97;102259.16;5068851;28;20091;-66
2023/12/19 02:41:46;;;;;;;0.20;0.20;;;;;;;14.91;66.82;102263.19;5068983;28;20548;-65
2023/12/19 02:44:11;;;;;;;0.20;0.20;;;;;;;14.63;67.15;102258.16;5068864;28;20094;-67
2023/12/19 02:46:36;;;;;;;0.15;0.15;;;;;;;14.85;65.65;102248.66;5068520;28;20036;-65
2023/12/19 02:49:02;;;;;;;0.30;0.30;;;;;;;14.62;67.46;102240.25;5068263;28;20193;-65
2023/12/19 02:51:29;;;;;;;0.30;0.30;;;;;;;14.81;66.90;102238.47;5069151;28;20537;-66
2023/12/19 02:53:56;;;;;;;0.20;0.20;;;;;;;14.30;68.23;102240.44;5067982;28;20162;-65
2023/12/19 02:56:21;;;;;;;0.25;0.25;;;;;;;14.29;68.43;102239.59;5068014;28;20045;-66
2023/12/19 02:58:46;;;;;;;0.20;0.20;;;;;;;15.03;64.68;102230.81;5069434;28;20519;-65
2023/12/19 03:01:12;;;;;;;0.25;0.25;;;;;;;14.29;67.96;102209.03;5075144;28;20032;-65
2023/12/19 03:03:41;;;;;;;0.20;0.20;;;;;;;15.41;65.33;102210.66;5075600;28;20082;-65
2023/12/19 03:06:07;;;;;;;0.10;0.10;;;;;;;14.36;69.41;102207.13;5074155;28;20094;-65
2023/12/19 03:08:35;;;;;;;0.30;0.30;;;;;;;14.23;68.68;102204.47;5075014;28;20048;-65
2023/12/19 03:11:00;;;;;;;0.30;0.30;;;;;;;14.95;67.31;102197.56;5074354;28;20040;-65
2023/12/19 03:13:26;;;;;;;0.30;0.30;;;;;;;14.52;67.74;102203.91;5041695;28;20075;-65
2023/12/19 03:15:51;;;;;;;0.22;0.22;;;;;;;15.20;65.82;102191.28;5075145;28;20039;-66
2023/12/19 03:18:23;;;;;;;0.20;0.20;;;;;;;15.08;65.89;102196.59;5075557;28;20116;-65
2023/12/19 03:20:49;;;;;;;0.40;0.40;;;;;;;14.22;69.29;102198.22;5068713;28;20041;-64
2023/12/19 03:23:14;;;;;;;0.30;0.30;;;;;;;14.21;69.09;102195.75;5074350;28;20121;-65
2023/12/19 03:25:40;;;;;;;0.30;0.30;;;;;;;13.97;69.83;102190.00;5075168;28;20072;-65
2023/12/19 03:28:05;;;;;;;0.20;0.20;;;;;;;14.25;69.71;102176.16;5075108;28;20024;-65
2023/12/19 03:30:30;;;;;;;0.20;0.20;;;;;;;14.77;67.73;102161.47;5075315;28;20112;-66
2023/12/19 03:32:56;;;;;;;0.30;0.30;;;;;;;14.65;68.46;102165.94;5075134;28;20072;-65
2023/12/19 03:35:23;;;;;;;0.30;0.30;;;;;;;14.31;68.58;102160.97;5074825;28;20200;-65
2023/12/19 03:37:50;;;;;;;0.30;0.30;;;;;;;14.30;68.14;102162.84;5075570;28;20038;-65
2023/12/19 03:40:16;;;;;;;0.32;0.32;;;;;;;14.41;68.33;102153.19;5077094;28;20036;-65
2023/12/19 03:42:41;;;;;;;0.30;0.30;;;;;;;14.63;68.31;102146.38;5075124;28;20027;-65
2023/12/19 03:45:07;;;;;;;0.20;0.20;;;;;;;14.60;67.77;102138.72;5074285;28;20508;-67
2023/12/19 03:47:33;;;;;;;0.30;0.30;;;;;;;15.31;65.01;102139.13;5073921;28;20679;-66
2023/12/19 03:49:58;;;;;;;0.30;0.30;;;;;;;14.36;68.97;102126.84;5073761;28;20045;-65
2023/12/19 03:52:23;;;;;;;0.20;0.20;;;;;;;14.76;67.92;102132.78;5073728;28;20048;-65
2023/12/19 03:54:50;;;;;;;0.20;0.20;;;;;;;14.35;69.62;102127.84;5074256;28;20076;-64
2023/12/19 03:57:34;;;;;;;0.20;0.20;;;;;;;14.19;69.55;102127.53;5074013;28;20108;-65
2023/12/19 03:59:59;;;;;;;0.20;0.20;;;;;;;14.23;68.71;102115.25;5073849;28;20087;-65
2023/12/19 04:02:24;;;;;;;0.20;0.20;;;;;;;14.50;68.86;102103.22;5068658;28;20048;-64
2023/12/19 04:04:50;;;;;;;0.20;0.20;;;;;;;14.83;67.96;102103.75;5073536;28;20122;-65
2023/12/19 04:07:15;;;;;;;0.40;0.40;;;;;;;14.39;68.50;102106.59;5074315;28;20040;-66
2023/12/19 04:09:40;;;;;;;0.30;0.30;;;;;;;15.03;68.12;102096.28;5074476;28;20483;-66
2023/12/19 04:12:06;;;;;;;0.10;0.10;;;;;;;15.10;67.43;102074.53;5069432;28;20055;-64
2023/12/19 04:14:51;;;;;;;0.25;0.25;;;;;;;14.87;69.96;102077.91;5052408;28;20043;-65
2023/12/19 04:17:17;;;;;;;0.20;0.20;;;;;;;14.10;70.80;102071.03;5045205;28;20431;-66
2023/12/19 04:19:42;;;;;;;0.40;0.40;;;;;;;14.52;68.41;102084.88;5070882;28;20135;-65
2023/12/19 04:22:07;;;;;;;0.20;0.20;;;;;;;15.33;67.33;102074.72;5058126;28;20063;-66
2023/12/19 04:24:33;;;;;;;0.30;0.30;;;;;;;14.64;69.43;102075.00;5071450;28;20544;-65
2023/12/19 04:26:58;;;;;;;0.28;0.28;;;;;;;13.87;72.82;102076.16;5069496;28;20040;-65
2023/12/19 04:29:23;;;;;;;0.20;0.20;;;;;;;13.87;71.82;102089.69;5064176;28;20115;-66
2023/12/19 04:31:49;;;;;;;0.10;0.10;;;;;;;14.35;70.22;102073.78;5071013;28;20040;-64
2023/12/19 04:34:14;;;;;;;0.20;0.20;;;;;;;14.56;69.11;102083.41;5071061;28;20116;-66
2023/12/19 04:36:39;;;;;;;0.28;0.28;;;;;;;14.43;69.41;102065.41;5071522;28;20107;-65
2023/12/19 04:39:05;;;;;;;0.30;0.30;;;;;;;14.44;70.05;102074.34;5070799;28;20063;-65
2023/12/19 04:41:30;;;;;;;0.30;0.30;;;;;;;14.57;70.13;102061.53;5051902;28;20032;-66
2023/12/19 04:43:56;;;;;;;0.32;0.32;;;;;;;14.02;72.56;102057.78;5070639;28;20418;-65
2023/12/19 04:46:22;;;;;;;0.32;0.32;;;;;;;14.34;70.74;102050.50;5070563;28;20503;-65
2023/12/19 04:48:47;;;;;;;0.20;0.20;;;;;;;14.54;69.14;102047.63;5071232;28;20047;-65
2023/12/19 04:51:17;;;;;;;0.35;0.35;;;;;;;14.63;68.54;102041.72;5070579;28;20443;-65
2023/12/19 04:53:42;;;;;;;0.20;0.20;;;;;;;14.34;71.06;102053.22;5070891;28;20032;-65
2023/12/19 04:56:08;;;;;;;0.20;0.20;;;;;;;14.32;70.69;102047.19;5070190;28;20059;-66
2023/12/19 04:58:33;;;;;;;0.30;0.30;;;;;;;14.75;70.00;102047.22;5052071;28;20048;-65
2023/12/19 05:00:58;;;;;;;0.30;0.30;;;;;;;13.70;73.43;102044.47;5069419;28;20020;-65
2023/12/19 05:03:26;;;;;;;0.30;0.30;;;;;;;14.25;70.49;102057.19;5070329;28;20522;-66
2023/12/19 05:05:51;;;;;;;0.30;0.30;;;;;;;14.16;71.10;102046.84;5069971;28;20036;-65
2023/12/19 05:08:16;;;;;;;0.30;0.30;;;;;;;13.94;71.47;102035.56;5073697;28;20383;-66
2023/12/19 05:10:43;;;;;;;0.30;0.30;;;;;;;13.68;72.49;102052.78;5070263;28;20044;-65
2023/12/19 05:13:09;;;;;;;0.10;0.10;;;;;;;14.30;70.59;102049.28;5069850;28;20039;-65
2023/12/19 05:15:34;;;;;;;0.30;0.30;;;;;;;14.14;71.45;102044.38;5070073;28;20141;-65
2023/12/19 05:18:00;;;;;;;0.30;0.30;;;;;;;13.84;72.61;102044.16;5069855;28;20131;-64
2023/12/19 05:20:25;;;;;;;0.30;0.30;;;;;;;15.18;67.60;102042.59;5071541;28;20033;-65
2023/12/19 05:22:50;;;;;;;0.22;0.22;;;;;;;15.20;67.32;102042.34;5072861;28;20064;-66
2023/12/19 05:25:16;;;;;;;0.13;0.13;;;;;;;14.56;70.37;102038.25;5069262;28;20061;-65
2023/12/19 05:27:43;;;;;;;0.20;0.20;;;;;;;14.33;70.91;102027.19;5070652;28;20024;-65
2023/12/19 05:30:11;;;;;;;0.30;0.30;;;;;;;15.03;68.34;102030.47;5069723;28;20055;-64
2023/12/19 05:32:36;;;;;;;0.20;0.20;;;;;;;14.23;71.23;102013.31;5052262;28;20059;-64
2023/12/19 05:35:02;;;;;;;0.30;0.30;;;;;;;15.04;67.60;102024.81;5069521;28;20033;-64
2023/12/19 05:37:27;;;;;;;0.30;0.30;;;;;;;14.45;70.10;102021.88;5070222;28;20361;-64
2023/12/19 05:39:52;;;;;;;0.30;0.30;;;;;;;15.14;67.78;102024.28;5070456;28;20063;-67
2023/12/19 05:42:19;;;;;;;0.20;0.20;;;;;;;14.04;72.29;102017.84;5069690;28;20405;-64
2023/12/19 05:44:44;;;;;;;0.25;0.25;;;;;;;14.13;71.54;102016.50;5066951;28;20035;-64
2023/12/19 05:47:09;;;;;;;0.30;0.30;;;;;;;14.65;69.47;102014.44;5068706;28;20542;-65
2023/12/19 05:49:35;;;;;;;0.30;0.30;;;;;;;14.75;67.55;102023.69;5068811;28;20536;-64
2023/12/19 05:52:01;;;;;;;0.22;0.22;;;;;;;14.50;68.87;102027.47;5069169;28;20167;-65
2023/12/19 05:54:26;;;;;;;0.20;0.20;;;;;;;15.10;67.05;102021.22;5069695;28;20606;-64
2023/12/19 05:56:51;;;;;;;0.20;0.20;;;;;;;14.74;69.29;102013.91;5069424;28;20024;-65
2023/12/19 05:59:17;;;;;;;0.20;0.20;;;;;;;14.93;67.30;102021.00;5069266;28;20110;-65
2023/12/19 06:01:43;;;;;;;0.30;0.30;;;;;;;15.02;67.32;102013.41;5068443;28;20115;-65
2023/12/19 06:04:08;;;;;;;0.30;0.30;;;;;;;15.90;64.41;102016.44;5069180;28;20514;-64
2023/12/19 06:06:37;;;;;;;0.38;0.38;;;;;;;15.89;64.24;101999.34;5050402;28;20556;-63
2023/12/19 06:09:02;;;;;;;0.30;0.30;;;;;;;15.97;63.49;102009.03;5068658;28;20581;-65
2023/12/19 06:11:28;;;;;;;0.20;0.20;;;;;;;15.92;63.71;102006.19;5068486;28;20036;-64
2023/12/19 06:13:53;;;;;;;0.20;0.20;;;;;;;15.39;65.18;101995.25;5066217;28;20032;-64
2023/12/19 06:16:19;;;;;;;0.20;0.20;;;;;;;15.03;67.77;101987.16;5068856;28;20463;-64
2023/12/19 06:18:44;;;;;;;0.28;0.28;;;;;;;14.98;67.24;101987.81;5069823;28;20067;-65
2023/12/19 06:21:10;;;;;;;0.30;0.30;;;;;;;15.32;66.57;101989.06;5063312;28;20540;-64
2023/12/19 06:23:35;;;;;;;0.30;0.30;;;;;;;15.57;65.81;101971.66;5068144;28;20094;-64
2023/12/19 06:26:01;;;;;;;0.20;0.20;;;;;;;15.49;64.89;101982.00;5065897;28;20032;-65
2023/12/19 06:28:26;;;;;;;0.40;0.40;;;;;;;15.73;65.46;101983.75;5064565;28;20048;-65
2023/12/19 06:30:51;;;;;;;0.30;0.30;;;;;;;15.70;64.18;101971.47;5069228;28;20028;-64
2023/12/19 06:33:17;;;;;;;0.25;0.25;;;;;;;15.97;63.02;101961.06;5064353;28;20075;-64
2023/12/19 06:35:44;;;;;;;0.30;0.30;;;;;;;15.03;66.71;101962.78;5063787;28;20074;-63
2023/12/19 06:38:10;;;;;;;0.30;0.30;;;;;;;15.68;65.26;101961.94;5067373;28;20040;-63
2023/12/19 06:40:36;;;;;;;0.20;0.20;;;;;;;15.19;67.55;101959.47;5055821;28;20045;-63
2023/12/19 06:43:05;;;;;;;0.30;0.30;;;;;;;16.22;64.13;101949.97;5068857;28;20034;-63
2023/12/19 06:45:32;;;;;;;0.20;0.20;;;;;;;15.40;66.40;101958.97;5074791;28;20085;-63
2023/12/19 06:48:00;;;;;;;0.30;0.30;;;;;;;15.84;64.60;101956.66;5055926;28;20185;-65
2023/12/19 06:50:25;;;;;;;0.20;0.20;;;;;;;15.76;64.41;101964.31;5065184;28;20123;-65
2023/12/19 06:52:51;;;;;;;0.30;0.30;;;;;;;14.94;68.90;101967.69;5061315;28;20155;-64
2023/12/19 06:55:16;;;;;;;0.30;0.30;;;;;;;14.70;70.52;101944.25;5062230;28;20883;-65
2023/12/19 06:57:42;;;;;;;0.20;0.20;;;;;;;15.29;68.22;101933.47;5041979;28;20052;-65
2023/12/19 07:00:07;;;;;;;0.30;0.30;;;;;;;15.53;66.86;101935.25;5062730;28;20075;-64
2023/12/19 07:02:35;;;;;;;0.20;0.20;;;;;;;14.96;69.04;101930.38;5064386;28;20033;-65
2023/12/19 07:05:01;;;;;;;0.40;0.40;;;;;;;15.20;67.94;101923.19;5047179;28;20056;-64
2023/12/19 07:07:26;;;;;;;0.20;0.20;;;;;;;15.78;66.56;101927.78;5064912;28;20058;-65
2023/12/19 07:09:51;;;;;;;0.32;0.32;;;;;;;16.12;64.76;101919.91;5062356;28;20052;-64
2023/12/19 07:12:17;;;;;;;0.20;0.20;;;;;;;14.88;68.06;101919.88;5066550;28;20044;-64
2023/12/19 07:14:42;;;;;;;0.20;0.20;;;;;;;15.61;67.25;101921.38;5068338;28;20040;-65
2023/12/19 07:17:07;;;;;;;0.30;0.30;;;;;;;15.33;68.05;101914.91;5067913;28;20067;-64
2023/12/19 07:19:34;;;;;;;0.20;0.20;;;;;;;15.65;67.59;101917.16;5068900;28;20114;-66
2023/12/19 07:21:59;;;;;;;0.20;0.20;;;;;;;15.81;66.45;101915.66;5063841;28;20040;-65
2023/12/19 07:24:25;;;;;;;0.20;0.20;;;;;;;16.11;65.44;101919.09;5066802;28;20104;-65
2023/12/19 07:26:50;;;;;;;0.20;0.20;;;;;;;15.46;66.24;101914.75;5065840;28;20132;-64
2023/12/19 07:29:15;;;;;;;0.13;0.13;;;;;;;15.46;67.70;101914.75;5068147;28;20063;-66
2023/12/19 07:31:41;;;;;;;0.30;0.30;;;;;;;14.74;70.93;101916.50;5068277;28;20044;-65
2023/12/19 07:34:06;;;;;;;0.10;0.10;;;;;;;15.45;68.25;101926.66;5067891;28;20120;-65
2023/12/19 07:36:33;;;;;;;0.40;0.40;;;;;;;14.67;70.97;101910.34;5065003;28;20075;-66
2023/12/19 07:38:58;;;;;;;0.20;0.20;;;;;;;15.27;70.16;101910.41;5067166;28;20174;-65
2023/12/19 07:41:26;;;;;;;0.20;0.20;;;;;;;15.35;70.21;101907.38;5066924;28;20036;-66
2023/12/19 07:43:52;;;;;;;0.20;0.20;;;;;;;15.64;68.12;101906.56;5056142;28;20041;-64
2023/12/19 07:46:19;;;;;;;0.30;0.30;;;;;;;14.87;70.28;101910.09;5060998;28;20531;-64
2023/12/19 07:48:44;;;;;;;0.10;0.10;;;;;;;15.28;69.62;101906.63;5058187;28;20085;-65
2023/12/19 07:51:19;;;;;;;0.20;0.20;;;;;;;15.26;71.50;101898.75;5064598;28;20040;-63
2023/12/19 07:53:45;;;;;;;0.10;0.10;;;;;;;15.27;70.42;101889.56;5065561;28;20043;-64
2023/12/19 07:56:10;;;;;;;0.30;0.30;;;;;;;15.91;68.53;101902.34;5063877;28;20036;-64
2023/12/19 07:58:36;;;;;;;0.20;0.20;;;;;;;15.56;69.47;101893.34;5066145;28;20052;-65
2023/12/19 08:01:01;;;;;;;0.20;0.20;;;;;;;15.78;67.40;101897.97;5061171;28;20154;-63
2023/12/19 08:03:28;;;;;;;0.38;0.38;;;;;;;15.63;68.89;101900.28;5065696;28;20051;-65
2023/12/19 08:05:56;;;;;;;0.30;0.30;;;;;;;15.16;70.70;101903.06;5064212;28;20040;-64
2023/12/19 08:08:25;;;;;;;0.30;0.30;;;;;;;15.59;70.43;101903.69;5058648;28;20099;-65
2023/12/19 08:10:51;;;;;;;0.20;0.20;;;;;;;15.40;69.06;101900.22;5055595;28;20128;-65
2023/12/19 08:13:20;;;;;;;0.30;0.30;;;;;;;15.37;69.00;101900.66;5054437;28;20444;-66
2023/12/19 08:15:47;;;;;;;0.20;0.20;;;;;;;15.41;69.40;101896.44;5050776;28;20045;-65
2023/12/19 08:18:13;;;;;;;0.30;0.30;;;;;;;15.72;68.09;101890.75;5054742;28;20048;-64
2023/12/19 08:20:38;;;;;;;0.30;0.30;;;;;;;15.74;68.40;101887.84;5056777;28;20050;-64
2023/12/19 08:23:03;;;;;;;0.30;0.30;;;;;;;15.16;70.70;101889.50;5069228;28;20056;-65
2023/12/19 08:25:29;;;;;;;0.30;0.30;;;;;;;15.01;71.06;101878.28;5067804;28;20045;-64
2023/12/19 08:27:54;;;;;;;0.25;0.25;;;;;;;15.02;71.56;101879.94;5069967;28;20056;-65
2023/12/19 08:30:22;;;;;;;0.15;0.15;;;;;;;15.43;70.31;101880.00;5068776;28;20040;-65
2023/12/19 08:32:48;;;;;;;0.20;0.20;;;;;;;15.45;69.69;101870.56;5069852;28;20492;-64
2023/12/19 08:35:13;;;;;;;0.20;0.20;;;;;;;15.23;70.90;101874.03;5069773;28;20065;-64
2023/12/19 08:37:39;;;;;;;0.20;0.20;;;;;;;14.88;70.75;101860.31;5068839;28;20123;-64
2023/12/19 08:40:06;;;;;;;0.30;0.30;;;;;;;15.52;70.36;101859.63;5069411;28;20583;-66
2023/12/19 08:42:31;;;;;;;0.25;0.25;;;;;;;14.82;72.39;101864.78;5069798;28;20032;-64
2023/12/19 08:44:57;;;;;;;0.10;0.10;;;;;;;14.92;72.77;101867.78;5068908;28;20044;-65
2023/12/19 08:47:23;;;;;;;0.30;0.30;;;;;;;15.29;71.43;101857.66;5065566;28;20040;-64
2023/12/19 08:49:52;;;;;;;0.20;0.20;;;;;;;15.05;72.57;101860.53;5069037;28;20055;-64
2023/12/19 08:52:21;;;;;;;0.25;0.25;;;;;;;15.56;69.98;101856.25;5069294;28;20395;-64
2023/12/19 08:54:46;;;;;;;0.20;0.20;;;;;;;14.70;73.07;101860.38;5069772;28;20085;-66
2023/12/19 08:57:13;;;;;;;0.25;0.25;;;;;;;15.64;69.69;101857.78;5065203;28;20508;-64
2023/12/19 08:59:38;;;;;;;0.20;0.20;;;;;;;14.84;72.27;101859.97;5065197;28;20054;-65
2023/12/19 09:02:04;;;;;;;0.20;0.20;;;;;;;14.82;72.52;101863.94;5067935;28;20067;-64
2023/12/19 09:04:30;;;;;;;0.25;0.25;;;;;;;15.27;72.44;101846.22;5067948;28;20052;-63
2023/12/19 09:06:55;;;;;;;0.20;0.20;;;;;;;15.25;72.37;101861.88;5065313;28;20489;-65
2023/12/19 09:09:20;;;;;;;0.20;0.20;;;;;;;15.17;71.59;101859.53;5069109;28;20087;-66
2023/12/19 09:11:46;;;;;;;0.30;0.30;;;;;;;14.69;73.86;101861.41;5058498;28;20079;-65
2023/12/19 09:14:11;;;;;;;0.15;0.15;;;;;;;15.19;73.07;101856.59;5063202;28;20790;-66
2023/12/19 09:16:37;;;;;;;0.10;0.10;;;;;;;15.89;69.91;101844.00;5064787;28;20144;-65
2023/12/19 09:19:02;;;;;;;0.38;0.38;;;;;;;15.29;71.43;101854.94;5056767;28;20112;-64
2023/12/19 09:21:28;;;;;;;0.25;0.25;;;;;;;14.80;73.81;101855.25;5067489;28;20750;-64
2023/12/19 09:23:53;;;;;;;0.20;0.20;;;;;;;14.91;73.22;101858.00;5064436;28;20044;-63
2023/12/19 09:26:19;;;;;;;0.30;0.30;;;;;;;15.23;72.16;101841.53;5067205;28;20070;-65
2023/12/19 09:28:44;;;;;;;0.30;0.30;;;;;;;15.27;71.52;101843.50;5058534;28;20037;-64
2023/12/19 09:31:10;;;;;;;0.20;0.20;;;;;;;14.94;73.32;101854.84;5038156;28;20060;-65
2023/12/19 09:33:38;;;;;;;0.20;0.20;;;;;;;14.77;73.73;101848.41;5068503;28;20029;-65
2023/12/19 09:36:08;;;;;;;0.30;0.30;;;;;;;15.13;73.11;101838.53;5062614;28;20045;-64
2023/12/19 09:38:34;;;;;;;0.40;0.40;;;;;;;15.23;72.02;101836.09;5060328;28;20040;-63
2023/12/19 09:40:59;;;;;;;0.20;0.20;;;;;;;15.06;73.34;101835.94;5059209;28;20067;-65
2023/12/19 09:43:25;;;;;;;0.32;0.32;;;;;;;15.07;72.61;101836.75;5057187;28;20070;-64
2023/12/19 09:45:50;;;;;;;0.30;0.30;;;;;;;15.26;72.36;101838.34;5062750;28;20041;-64
2023/12/19 09:48:18;;;;;;;0.13;0.13;;;;;;;15.24;73.25;101827.75;5059608;28;20047;-64
2023/12/19 09:50:46;;;;;;;0.20;0.20;;;;;;;15.12;73.25;101832.31;5063712;28;20045;-64
2023/12/19 09:53:14;;;;;;;0.20;0.20;;;;;;;14.85;74.59;101822.91;5058967;28;20040;-64
2023/12/19 09:55:43;;;;;;;0.15;0.15;;;;;;;15.05;72.41;101819.91;5061652;28;20040;-64
2023/12/19 09:58:10;;;;;;;0.10;0.10;;;;;;;15.46;72.78;101812.63;5060264;28;20123;-63
2023/12/19 10:00:39;;;;;;;0.40;0.40;;;;;;;15.31;71.99;101800.56;5066971;28;20028;-65
2023/12/19 10:03:05;;;;;;;0.20;0.20;;;;;;;15.55;72.28;101792.25;5066760;28;20458;-65
2023/12/19 10:05:30;;;;;;;0.35;0.35;;;;;;;15.81;69.71;101794.50;5067377;28;20041;-65
2023/12/19 10:07:59;;;;;;;0.40;0.40;;;;;;;14.66;74.83;101795.06;5061022;28;20036;-64
2023/12/19 10:10:53;;;;;;;0.20;0.20;;;;;;;15.16;73.93;101801.00;5063036;28;20040;-64
2023/12/19 10:13:29;;;;;;;0.28;0.28;;;;;;;15.69;72.27;101785.56;5068263;28;20745;-65
2023/12/19 10:16:06;;;;;;;0.32;0.32;;;;;;;14.88;74.94;101789.97;5060018;28;20439;-64
2023/12/19 10:18:33;;;;;;;0.20;0.20;;;;;;;15.27;74.75;101791.25;5066597;28;20459;-64
2023/12/19 10:21:09;;;;;;;0.20;0.20;;;;;;;14.79;74.94;101788.66;5061761;28;20040;-65
2023/12/19 10:23:35;;;;;;;0.20;0.20;;;;;;;15.49;72.46;101778.81;5061443;28;20051;-65
2023/12/19 10:26:01;;;;;;;0.28;0.28;;;;;;;15.24;73.38;101781.72;5060909;28;20036;-66
2023/12/19 10:28:26;;;;;;;0.22;0.22;;;;;;;15.07;73.05;101782.63;5059105;28;20041;-64
2023/12/19 10:31:17;;;;;;;0.20;0.20;;;;;;;15.63;72.34;101763.97;5059813;28;20028;-63
2023/12/19 10:33:49;;;;;;;0.20;0.20;;;;;;;15.27;72.70;101786.66;5062582;28;20083;-64
2023/12/19 10:36:26;;;;;;;0.22;0.22;;;;;;;15.57;71.94;101762.22;5060954;28;20044;-63
2023/12/19 10:38:53;;;;;;;0.20;0.20;;;;;;;15.24;73.13;101764.63;5062748;28;20480;-65
2023/12/19 10:41:22;;;;;;;0.20;0.20;;;;;;;15.16;73.29;101754.97;5062174;28;20071;-64
2023/12/19 10:43:52;;;;;;;0.30;0.30;;;;;;;15.46;71.41;101747.63;5067213;28;20041;-65
2023/12/19 10:46:19;;;;;;;0.30;0.30;;;;;;;15.44;72.31;101743.50;5049244;28;20021;-64
2023/12/19 10:48:47;;;;;;;0.35;0.35;;;;;;;15.40;72.77;101743.13;5061221;28;20031;-63
2023/12/19 10:51:18;;;;;;;0.30;0.30;;;;;;;14.83;74.96;101741.97;5060581;28;20045;-63
2023/12/19 10:53:58;;;;;;;0.38;0.38;;;;;;;15.61;71.79;101739.84;5061672;28;20048;-63
2023/12/19 10:56:24;;;;;;;0.25;0.25;;;;;;;15.42;73.12;101729.38;5058991;28;20535;-65
2023/12/19 10:58:57;;;;;;;0.20;0.20;;;;;;;15.62;71.80;101732.53;5063938;28;20036;-65
2023/12/19 11:01:25;;;;;;;0.30;0.30;;;;;;;15.47;72.23;101746.56;5057451;28;20045;-64
2023/12/19 11:03:58;;;;;;;0.10;0.10;;;;;;;15.82;71.84;101730.28;5061693;28;20496;-66
2023/12/19 11:06:29;;;;;;;0.30;0.30;;;;;;;15.66;71.36;101718.25;5063396;28;20071;-64
2023/12/19 11:09:03;;;;;;;0.30;0.30;;;;;;;15.24;73.45;101729.44;5064720;28;20123;-64
2023/12/19 11:11:35;;;;;;;0.40;0.40;;;;;;;15.34;72.09;101726.97;5058080;28;20086;-64
2023/12/19 11:14:02;;;;;;;0.20;0.20;;;;;;;15.39;73.16;101735.22;5054720;28;20044;-64
2023/12/19 11:16:32;;;;;;;0.20;0.20;;;;;;;15.54;72.73;101703.94;5059856;28;20477;-65
2023/12/19 11:19:12;;;;;;;0.20;0.20;;;;;;;15.52;72.82;101714.19;5057820;28;20025;-64
2023/12/19 11:21:54;;;;;;;0.30;0.30;;;;;;;15.72;72.34;101698.34;5060378;28;20076;-63